Time;durP1;ratioP1;P1;durP2;ratioP2;P2;SDS_P1;SDS_P2;PMS_P1;PMS_P2;Temp;Humidity;BMP_temperature;BMP_pressure;BME280_temperature;BME280_humidity;BME280_pressure;Samples;Min_cycle;Max_cycle;Signal;HPM_P1;HPM_P2
2022/07/01 00:02:09;;;;;;;19.95;14.85;;;;;;;18.36;89.69;94644.28;1640291;86;21264;-51
2022/07/01 00:04:37;;;;;;;23.62;15.00;;;;;;;18.32;89.45;94643.12;1645639;86;21144;-50
2022/07/01 00:07:23;;;;;;;24.00;15.80;;;;;;;18.30;89.60;94645.64;1621427;86;21002;-51
2022/07/01 00:09:53;;;;;;;15.53;12.20;;;;;;;18.25;89.85;94648.39;1633884;86;21589;-51
2022/07/01 00:12:21;;;;;;;15.05;11.68;;;;;;;18.23;89.93;94645.32;1634503;86;21018;-51
2022/07/01 00:14:50;;;;;;;17.77;12.65;;;;;;;18.20;89.57;94643.53;1613360;86;21243;-50
2022/07/01 00:17:17;;;;;;;15.93;13.43;;;;;;;18.14;89.62;94648.33;1649589;86;21011;-51
2022/07/01 00:19:46;;;;;;;19.10;13.00;;;;;;;18.11;89.88;94642.98;1640396;86;21214;-50
2022/07/01 00:22:15;;;;;;;18.42;12.60;;;;;;;18.11;90.05;94645.77;1648581;85;20995;-50
2022/07/01 00:24:46;;;;;;;16.10;12.40;;;;;;;18.11;90.09;94649.33;1626123;86;21097;-50
2022/07/01 00:27:13;;;;;;;19.95;13.38;;;;;;;18.11;89.90;94647.16;1627466;87;22062;-51
2022/07/01 00:29:41;;;;;;;20.12;14.78;;;;;;;18.08;90.10;94646.77;1647226;86;21727;-51
2022/07/01 00:32:09;;;;;;;19.45;14.18;;;;;;;18.01;89.99;94650.77;1646979;86;21031;-51
2022/07/01 00:34:37;;;;;;;23.45;14.18;;;;;;;17.94;90.23;94653.25;1649942;86;21014;-51
2022/07/01 00:37:05;;;;;;;19.07;12.65;;;;;;;17.92;90.81;94650.20;1645321;86;21097;-50
2022/07/01 00:39:35;;;;;;;17.17;13.18;;;;;;;17.91;90.27;94651.47;1633371;86;21912;-51
2022/07/01 00:42:04;;;;;;;17.20;13.28;;;;;;;17.87;90.04;94646.77;1643893;86;21009;-52
2022/07/01 00:44:32;;;;;;;14.68;11.88;;;;;;;17.82;90.03;94640.54;1626549;86;21038;-51
2022/07/01 00:47:02;;;;;;;20.62;12.93;;;;;;;17.77;90.09;94650.98;1645045;86;21133;-52
2022/07/01 00:49:31;;;;;;;16.57;11.75;;;;;;;17.73;90.51;94647.06;1642149;86;21019;-52
2022/07/01 00:52:00;;;;;;;15.32;11.20;;;;;;;17.75;90.84;94646.55;1632879;86;21809;-51
2022/07/01 00:54:29;;;;;;;21.05;13.98;;;;;;;17.79;91.31;94644.33;1641553;85;21098;-51
2022/07/01 00:56:57;;;;;;;19.48;14.20;;;;;;;17.79;90.99;94647.85;1628926;86;21586;-51
2022/07/01 00:59:25;;;;;;;16.52;13.75;;;;;;;17.77;91.17;94643.41;1641803;86;21031;-51
2022/07/01 01:01:53;;;;;;;19.70;14.28;;;;;;;17.72;91.55;94646.16;1647447;86;21113;-50
2022/07/01 01:04:21;;;;;;;20.15;14.20;;;;;;;17.71;91.84;94644.63;1628258;86;21256;-50
2022/07/01 01:06:49;;;;;;;19.73;13.85;;;;;;;17.69;91.70;94645.14;1640932;86;21001;-50
2022/07/01 01:09:18;;;;;;;21.25;14.45;;;;;;;17.65;91.47;94646.62;1641294;86;20974;-51
2022/07/01 01:11:46;;;;;;;19.92;13.98;;;;;;;17.60;91.51;94641.75;1650138;86;21038;-52
2022/07/01 01:14:14;;;;;;;20.45;13.60;;;;;;;17.55;91.44;94644.65;1632969;86;20970;-52
2022/07/01 01:16:42;;;;;;;19.80;12.82;;;;;;;17.46;91.51;94642.67;1635373;86;21163;-50
2022/07/01 01:19:11;;;;;;;17.57;12.95;;;;;;;17.39;91.66;94646.67;1644596;86;21094;-51
2022/07/01 01:21:39;;;;;;;20.08;14.13;;;;;;;17.35;91.82;94645.36;1649144;86;21049;-51
2022/07/01 01:24:08;;;;;;;16.55;13.22;;;;;;;17.34;92.13;94645.23;1644308;86;21069;-52
2022/07/01 01:26:38;;;;;;;21.27;14.50;;;;;;;17.33;91.95;94645.06;1642305;86;20999;-52
2022/07/01 01:29:07;;;;;;;19.87;12.85;;;;;;;17.32;92.06;94652.63;1649576;86;21270;-52
2022/07/01 01:31:35;;;;;;;19.30;13.80;;;;;;;17.35;92.04;94646.13;1643797;86;20979;-52
2022/07/01 01:34:02;;;;;;;17.85;13.45;;;;;;;17.35;91.79;94645.36;1640435;86;21106;-52
2022/07/01 01:36:32;;;;;;;20.72;12.82;;;;;;;17.35;91.83;94646.75;1624102;86;21015;-52
2022/07/01 01:39:12;;;;;;;33.67;15.18;;;;;;;17.33;91.71;94646.45;1641899;86;21523;-51
2022/07/01 01:41:38;;;;;;;21.33;14.43;;;;;;;17.29;91.99;94640.36;1644854;86;21210;-50
2022/07/01 01:44:06;;;;;;;22.62;13.13;;;;;;;17.28;92.65;94642.36;1630857;86;21014;-52
2022/07/01 01:46:34;;;;;;;16.25;12.23;;;;;;;17.33;92.31;94649.23;1651651;85;21031;-51
2022/07/01 01:49:02;;;;;;;16.82;13.28;;;;;;;17.31;91.73;94650.36;1636682;86;21030;-52
2022/07/01 01:51:31;;;;;;;22.07;14.98;;;;;;;17.29;91.50;94658.43;1631621;85;20962;-51
2022/07/01 01:54:00;;;;;;;17.50;12.37;;;;;;;17.27;91.56;94649.82;1627785;86;21168;-51
2022/07/01 01:56:29;;;;;;;20.77;13.90;;;;;;;17.26;92.12;94658.03;1638036;86;21096;-50
2022/07/01 01:58:58;;;;;;;16.87;12.65;;;;;;;17.24;92.69;94659.16;1655496;86;20991;-50
2022/07/01 02:01:26;;;;;;;15.55;12.93;;;;;;;17.25;92.94;94657.90;1639980;86;21220;-50
2022/07/01 02:03:54;;;;;;;19.25;14.95;;;;;;;17.23;92.65;94654.81;1653655;85;21660;-52
2022/07/01 02:06:22;;;;;;;18.92;13.13;;;;;;;17.21;92.31;94658.72;1650890;86;21522;-50
2022/07/01 02:08:50;;;;;;;21.70;14.38;;;;;;;17.17;91.99;94659.58;1646709;87;21446;-53
2022/07/01 02:11:18;;;;;;;18.40;12.53;;;;;;;17.12;92.12;94657.52;1646129;85;21106;-51
2022/07/01 02:13:46;;;;;;;14.50;12.45;;;;;;;17.07;92.25;94652.67;1612724;84;21718;-51
2022/07/01 02:16:15;;;;;;;24.25;15.10;;;;;;;17.04;92.70;94655.02;1650211;86;21101;-50
2022/07/01 02:18:42;;;;;;;21.62;14.83;;;;;;;17.05;92.95;94656.55;1646475;85;22395;-51
2022/07/01 02:21:11;;;;;;;28.17;13.90;;;;;;;17.07;93.13;94659.63;1641112;85;22047;-52
2022/07/01 02:23:39;;;;;;;15.50;12.75;;;;;;;17.07;92.95;94658.98;1647511;86;20973;-51
2022/07/01 02:26:08;;;;;;;18.07;12.23;;;;;;;17.09;92.97;94660.64;1645981;86;21065;-52
2022/07/01 02:28:37;;;;;;;16.42;11.43;;;;;;;17.07;92.52;94663.80;1636801;86;21184;-51
2022/07/01 02:31:05;;;;;;;19.45;13.95;;;;;;;17.05;92.62;94664.88;1598085;86;21210;-51
2022/07/01 02:33:33;;;;;;;15.13;12.50;;;;;;;17.03;92.33;94664.61;1626875;85;21148;-51
2022/07/01 02:36:01;;;;;;;20.68;12.30;;;;;;;17.00;92.39;94668.38;1648917;86;21057;-51
2022/07/01 02:38:29;;;;;;;16.17;11.80;;;;;;;16.94;92.52;94663.39;1648832;86;21586;-51
2022/07/01 02:40:58;;;;;;;14.93;12.15;;;;;;;16.86;92.85;94667.23;1645329;86;21207;-53
2022/07/01 02:43:26;;;;;;;20.20;12.82;;;;;;;16.83;93.10;94675.16;1653990;86;21877;-52
2022/07/01 02:45:54;;;;;;;17.55;13.32;;;;;;;16.84;93.47;94677.30;1642766;86;21434;-52
2022/07/01 02:48:23;;;;;;;19.70;13.08;;;;;;;16.86;93.43;94675.56;1642019;86;21457;-52
2022/07/01 02:50:51;;;;;;;16.27;11.73;;;;;;;16.86;93.14;94678.34;1640793;86;21521;-52
2022/07/01 02:53:19;;;;;;;19.87;13.62;;;;;;;16.85;92.92;94667.70;1646175;86;20982;-51
2022/07/01 02:55:47;;;;;;;17.37;12.35;;;;;;;16.88;92.73;94676.48;1648941;86;21125;-52
2022/07/01 02:58:15;;;;;;;18.12;13.18;;;;;;;16.88;92.73;94676.48;1670444;85;20985;-53
2022/07/01 03:00:43;;;;;;;18.17;12.82;;;;;;;16.84;92.89;94678.69;1649200;86;20971;-51
2022/07/01 03:03:11;;;;;;;21.45;12.53;;;;;;;16.82;93.20;94679.80;1640637;86;21037;-52
2022/07/01 03:05:39;;;;;;;19.00;11.75;;;;;;;16.83;93.37;94679.33;1631824;86;21026;-51
2022/07/01 03:08:09;;;;;;;15.13;11.53;;;;;;;16.88;93.25;94678.63;1641604;86;21082;-50
2022/07/01 03:10:38;;;;;;;23.67;13.80;;;;;;;16.91;93.14;94676.25;1648406;86;21022;-51
2022/07/01 03:13:06;;;;;;;19.30;12.98;;;;;;;16.96;93.48;94677.56;1656055;86;21458;-51
2022/07/01 03:15:34;;;;;;;18.10;13.60;;;;;;;17.00;93.15;94685.05;1628140;86;20994;-50
2022/07/01 03:18:02;;;;;;;19.42;12.60;;;;;;;16.97;92.87;94684.65;1639854;86;20982;-52
2022/07/01 03:20:30;;;;;;;22.58;13.62;;;;;;;16.94;93.00;94685.62;1621017;86;21802;-52
2022/07/01 03:22:58;;;;;;;20.20;12.25;;;;;;;16.91;92.93;94689.39;1640212;86;21573;-52
2022/07/01 03:25:26;;;;;;;19.05;13.30;;;;;;;16.90;93.07;94686.48;1652307;86;21015;-52
2022/07/01 03:27:55;;;;;;;15.32;12.65;;;;;;;16.92;93.34;94685.36;1653586;85;21074;-51
2022/07/01 03:30:22;;;;;;;16.30;13.48;;;;;;;16.96;93.41;94689.45;1646670;86;21558;-52
2022/07/01 03:32:52;;;;;;;18.73;12.90;;;;;;;17.01;93.06;94694.91;1582244;89;21234;-52
2022/07/01 03:35:35;;;;;;;21.45;13.50;;;;;;;17.04;92.85;94693.32;1587565;89;21005;-50
2022/07/01 03:38:04;;;;;;;17.82;12.15;;;;;;;17.10;92.73;94692.74;1595165;88;21155;-51
2022/07/01 03:40:32;;;;;;;16.27;12.78;;;;;;;17.17;92.46;94695.11;1631449;86;21045;-51
2022/07/01 03:43:01;;;;;;;20.37;13.45;;;;;;;17.23;92.34;94697.91;1638661;86;21031;-52
2022/07/01 03:45:28;;;;;;;20.52;13.60;;;;;;;17.30;92.40;94698.25;1643322;86;21846;-51
2022/07/01 03:47:57;;;;;;;21.68;13.85;;;;;;;17.39;92.01;94691.78;1669141;85;21133;-51
2022/07/01 03:50:25;;;;;;;16.32;12.03;;;;;;;17.48;91.84;94695.16;1634078;86;20977;-51
2022/07/01 03:55:42;;;;;;;19.02;12.10;;;;;;;17.67;91.19;94692.80;1651261;86;21082;-51
2022/07/01 03:58:10;;;;;;;23.55;13.32;;;;;;;17.75;91.10;94688.30;1629386;86;21252;-51
2022/07/01 04:00:39;;;;;;;19.90;13.30;;;;;;;17.82;90.91;94685.82;1614657;87;21038;-52
2022/07/01 04:03:08;;;;;;;17.75;12.70;;;;;;;17.92;90.71;94688.56;1650416;85;21165;-52
2022/07/01 04:05:36;;;;;;;14.78;13.15;;;;;;;18.01;90.15;94691.14;1646327;86;21039;-52
2022/07/01 04:08:05;;;;;;;21.30;12.75;;;;;;;18.08;89.84;94685.12;1648403;87;21495;-52
2022/07/01 04:10:34;;;;;;;24.20;13.55;;;;;;;18.16;89.79;94693.14;1626850;86;21884;-51
2022/07/01 04:13:02;;;;;;;20.88;13.20;;;;;;;18.24;89.35;94678.91;1660694;85;21093;-52
2022/07/01 04:15:30;;;;;;;21.57;13.28;;;;;;;18.32;88.86;94686.30;1625243;86;21034;-51
2022/07/01 04:17:59;;;;;;;18.00;13.50;;;;;;;18.36;88.71;94682.66;1640113;86;21034;-51
2022/07/01 04:20:27;;;;;;;15.83;12.73;;;;;;;18.43;88.77;94684.97;1633809;86;20978;-51
2022/07/01 04:22:56;;;;;;;19.57;14.25;;;;;;;18.52;88.61;94691.73;1641269;86;21296;-51
2022/07/01 04:25:24;;;;;;;21.55;14.03;;;;;;;18.59;88.53;94682.89;1646007;86;20983;-50
2022/07/01 04:27:52;;;;;;;22.98;14.35;;;;;;;18.71;88.46;94677.51;1663696;85;21046;-50
2022/07/01 04:30:20;;;;;;;20.85;15.35;;;;;;;18.85;87.81;94684.89;1642632;86;21145;-51
2022/07/01 04:32:48;;;;;;;24.05;16.95;;;;;;;18.95;87.26;94688.98;1642807;87;20991;-52
2022/07/01 04:35:16;;;;;;;20.27;14.47;;;;;;;19.06;86.66;94679.27;1648704;86;21365;-50
2022/07/01 04:37:45;;;;;;;20.90;13.83;;;;;;;19.16;85.59;94690.34;1642334;85;21578;-50
2022/07/01 04:40:13;;;;;;;18.87;13.65;;;;;;;19.22;84.99;94686.17;1649196;86;21027;-49
2022/07/01 04:42:42;;;;;;;16.85;13.03;;;;;;;19.29;84.12;94686.44;1633338;86;21073;-51
2022/07/01 04:45:11;;;;;;;14.83;13.05;;;;;;;19.34;83.40;94684.28;1646361;86;21062;-51
2022/07/01 04:47:39;;;;;;;15.75;14.00;;;;;;;19.38;82.99;94690.37;1642415;86;21263;-51
2022/07/01 04:50:08;;;;;;;17.70;14.28;;;;;;;19.44;82.69;94685.58;1640678;85;22240;-51
2022/07/01 04:52:36;;;;;;;15.72;12.43;;;;;;;19.51;82.39;94678.70;1648994;87;21507;-51
2022/07/01 04:55:06;;;;;;;21.15;13.60;;;;;;;19.56;82.22;94682.91;1646373;86;20995;-52
2022/07/01 04:57:35;;;;;;;15.78;13.53;;;;;;;19.63;81.76;94683.04;1646802;86;21482;-53
2022/07/01 05:00:04;;;;;;;17.32;13.03;;;;;;;19.70;81.33;94680.51;1620073;86;21157;-54
2022/07/01 05:02:32;;;;;;;21.80;14.18;;;;;;;19.80;81.03;94681.79;1643164;87;21083;-53
2022/07/01 05:05:02;;;;;;;18.15;14.43;;;;;;;19.85;80.70;94676.05;1668045;85;21093;-57
2022/07/01 05:07:31;;;;;;;17.67;12.78;;;;;;;19.92;80.41;94680.50;1643327;86;21069;-54
2022/07/01 05:09:59;;;;;;;16.97;13.75;;;;;;;19.99;80.03;94681.39;1623822;86;21098;-54
2022/07/01 05:12:28;;;;;;;22.25;14.30;;;;;;;20.09;79.68;94680.52;1642937;86;20963;-55
2022/07/01 05:14:57;;;;;;;20.02;14.03;;;;;;;20.20;79.57;94681.27;1640689;86;21188;-56
2022/07/01 05:21:55;;;;;;;21.10;14.35;;;;;;;20.33;79.02;94686.44;1639906;86;21471;-54
2022/07/01 05:22:41;;;;;;;16.10;12.23;;;;;;;20.57;77.75;94681.67;1616330;86;20983;-53
2022/07/01 05:25:09;;;;;;;18.50;13.00;;;;;;;20.66;77.01;94684.17;1621198;85;21300;-55
2022/07/01 05:27:38;;;;;;;21.25;15.00;;;;;;;20.72;76.51;94685.68;1635736;86;20985;-54
2022/07/01 05:30:07;;;;;;;16.97;13.35;;;;;;;20.81;76.34;94681.83;1665758;85;21202;-54
2022/07/01 05:32:35;;;;;;;17.30;13.15;;;;;;;20.88;76.15;94675.09;1654801;84;21649;-54
2022/07/01 05:35:04;;;;;;;16.55;13.08;;;;;;;20.98;75.95;94674.93;1648991;84;21199;-56
2022/07/01 05:37:31;;;;;;;14.00;12.50;;;;;;;21.09;75.59;94674.11;1656648;85;21197;-54
2022/07/01 05:40:00;;;;;;;18.42;12.70;;;;;;;21.17;75.14;94667.45;1655806;86;21515;-54
2022/07/01 05:42:30;;;;;;;18.17;13.30;;;;;;;21.28;74.76;94671.56;1661929;84;20984;-53
2022/07/01 05:44:58;;;;;;;20.05;14.20;;;;;;;21.37;74.32;94669.09;1617748;88;21049;-54
2022/07/01 05:47:26;;;;;;;20.02;13.50;;;;;;;21.47;73.91;94667.52;1596458;88;21139;-55
2022/07/01 05:49:53;;;;;;;20.20;13.55;;;;;;;21.56;73.67;94663.75;1656815;83;21276;-55
2022/07/01 05:52:21;;;;;;;15.80;13.22;;;;;;;21.66;73.36;94667.02;1697765;83;21141;-55
2022/07/01 05:54:49;;;;;;;17.35;14.20;;;;;;;21.74;72.94;94663.14;1659759;84;21137;-59
2022/07/01 05:57:16;;;;;;;39.63;23.05;;;;;;;21.84;72.56;94655.16;1650081;84;21590;-57
2022/07/01 05:59:43;;;;;;;24.18;16.48;;;;;;;21.98;72.22;94656.83;1622857;85;22051;-54
2022/07/01 06:02:11;;;;;;;18.57;14.58;;;;;;;22.12;71.57;94654.38;1655430;84;21826;-58
2022/07/01 06:04:38;;;;;;;17.27;13.32;;;;;;;22.24;70.89;94654.39;1657779;83;21045;-58
2022/07/01 06:07:05;;;;;;;18.30;14.23;;;;;;;22.37;70.15;94657.95;1654309;83;21044;-56
2022/07/01 06:09:34;;;;;;;17.90;12.70;;;;;;;22.48;69.72;94657.87;1629412;84;21026;-57
2022/07/01 06:12:03;;;;;;;18.02;13.50;;;;;;;22.55;69.26;94653.84;1654663;84;21044;-59
2022/07/01 06:14:30;;;;;;;17.27;13.13;;;;;;;22.66;68.99;94656.50;1656361;84;22428;-58
2022/07/01 06:16:59;;;;;;;23.90;13.30;;;;;;;22.78;68.66;94654.32;1654029;84;21125;-57
2022/07/01 06:19:26;;;;;;;15.75;13.28;;;;;;;22.92;68.53;94651.73;1655671;83;21220;-59
2022/07/01 06:21:54;;;;;;;14.38;12.70;;;;;;;23.10;67.92;94643.97;1655486;84;21020;-63
2022/07/01 06:24:21;;;;;;;22.58;12.73;;;;;;;23.26;67.65;94646.59;1656975;84;21120;-62
2022/07/01 06:26:49;;;;;;;15.58;11.83;;;;;;;23.44;67.15;94643.01;1660333;84;21423;-63
2022/07/01 06:29:17;;;;;;;22.77;16.07;;;;;;;23.64;65.67;94645.88;1629715;85;21026;-64
2022/07/01 06:31:45;;;;;;;16.07;12.80;;;;;;;23.73;64.69;94640.63;1641671;84;21112;-61
2022/07/01 06:34:12;;;;;;;13.65;12.20;;;;;;;23.81;64.72;94642.94;1653175;84;21066;-58
2022/07/01 06:36:39;;;;;;;13.53;12.13;;;;;;;23.88;64.45;94642.33;1650755;84;21577;-53
2022/07/01 06:39:07;;;;;;;17.27;11.75;;;;;;;23.97;64.01;94636.28;1652668;84;21386;-56
2022/07/01 06:41:34;;;;;;;15.45;13.62;;;;;;;24.06;63.76;94639.44;1658008;84;21662;-57
2022/07/01 06:44:02;;;;;;;13.68;12.20;;;;;;;24.16;63.45;94627.13;1661448;84;21078;-57
2022/07/01 06:46:31;;;;;;;15.53;11.78;;;;;;;24.25;63.20;94635.16;1655311;84;21080;-58
2022/07/01 06:48:58;;;;;;;19.00;12.78;;;;;;;24.34;63.25;94624.88;1631848;84;21092;-57
2022/07/01 06:51:27;;;;;;;15.20;11.95;;;;;;;24.44;62.90;94631.61;1652098;84;22362;-54
2022/07/01 06:53:54;;;;;;;17.75;12.28;;;;;;;24.55;62.59;94632.84;1659937;83;21077;-57
2022/07/01 06:56:21;;;;;;;13.53;12.07;;;;;;;24.66;62.19;94625.58;1653562;84;21181;-56
2022/07/01 06:58:49;;;;;;;15.38;12.80;;;;;;;24.79;62.07;94629.80;1653384;84;21369;-58
2022/07/01 07:01:16;;;;;;;19.45;13.28;;;;;;;24.91;61.88;94628.28;1656842;84;21528;-59
2022/07/01 07:03:44;;;;;;;16.35;11.70;;;;;;;25.02;61.85;94625.22;1635043;85;21214;-54
2022/07/01 07:06:11;;;;;;;13.88;12.47;;;;;;;25.15;61.63;94621.72;1643908;84;21100;-55
2022/07/01 07:08:39;;;;;;;13.18;11.90;;;;;;;25.25;61.15;94617.83;1654512;84;22128;-56
2022/07/01 07:11:08;;;;;;;14.33;12.18;;;;;;;25.36;60.02;94616.17;1657118;84;22343;-57
2022/07/01 07:13:39;;;;;;;21.25;12.50;;;;;;;25.49;59.15;94605.61;1660795;83;21143;-58
2022/07/01 07:16:08;;;;;;;12.75;11.38;;;;;;;25.62;58.84;94611.84;1660535;84;21205;-52
2022/07/01 07:18:35;;;;;;;14.38;11.70;;;;;;;25.76;58.41;94617.53;1649821;84;21033;-54
2022/07/01 07:21:03;;;;;;;17.52;11.73;;;;;;;25.87;57.98;94609.59;1657808;84;21006;-53
2022/07/01 07:23:32;;;;;;;12.88;11.55;;;;;;;25.99;57.43;94613.01;1664594;84;21536;-55
2022/07/01 07:26:00;;;;;;;16.95;12.03;;;;;;;26.10;57.34;94604.92;1630348;84;21100;-53
2022/07/01 07:28:28;;;;;;;14.65;11.63;;;;;;;26.24;57.05;94611.97;1661052;84;21981;-56
2022/07/01 07:30:55;;;;;;;12.43;11.18;;;;;;;26.36;56.69;94608.96;1655506;84;21033;-51
2022/07/01 07:33:22;;;;;;;20.48;11.40;;;;;;;26.52;56.46;94604.30;1656343;83;21010;-51
2022/07/01 07:35:50;;;;;;;19.60;11.73;;;;;;;26.70;56.27;94606.10;1661130;84;21021;-55
2022/07/01 07:38:18;;;;;;;12.50;10.30;;;;;;;26.85;56.21;94598.39;1654965;84;46417;-55
2022/07/01 07:40:46;;;;;;;12.18;10.35;;;;;;;27.05;56.26;94600.38;1659204;84;21084;-55
2022/07/01 07:43:13;;;;;;;13.60;10.63;;;;;;;27.23;54.97;94597.26;1653704;84;21374;-54
2022/07/01 07:45:41;;;;;;;12.78;10.50;;;;;;;27.40;53.93;94593.94;1657819;84;21126;-55
2022/07/01 07:48:09;;;;;;;12.60;9.88;;;;;;;27.57;54.19;94597.00;1658396;84;21631;-56
2022/07/01 07:50:37;;;;;;;11.50;10.28;;;;;;;27.75;54.20;94587.45;1653350;84;21180;-56
2022/07/01 07:53:06;;;;;;;11.68;9.25;;;;;;;27.91;53.26;94589.73;1637206;84;21791;-57
2022/07/01 07:55:33;;;;;;;13.40;9.45;;;;;;;28.05;52.58;94582.58;1656126;84;21024;-57
2022/07/01 07:58:01;;;;;;;10.80;9.80;;;;;;;28.19;52.41;94578.24;1653478;84;21040;-58
2022/07/01 08:00:28;;;;;;;12.58;9.00;;;;;;;28.34;52.30;94581.07;1659419;83;21159;-57
2022/07/01 08:02:55;;;;;;;11.55;9.55;;;;;;;28.47;52.62;94576.63;1658606;84;21147;-56
2022/07/01 08:05:23;;;;;;;14.30;9.38;;;;;;;28.67;52.86;94582.72;1652780;84;21105;-58
2022/07/01 08:07:50;;;;;;;16.65;9.83;;;;;;;28.86;51.86;94575.97;1659221;84;21030;-53
2022/07/01 08:10:17;;;;;;;11.30;8.93;;;;;;;29.00;51.10;94579.47;1655897;84;21035;-53
2022/07/01 08:12:46;;;;;;;9.95;8.93;;;;;;;29.17;50.74;94576.73;1658432;83;21052;-58
2022/07/01 08:15:13;;;;;;;15.90;12.25;;;;;;;29.30;50.18;94577.17;1659017;83;21265;-56
2022/07/01 08:17:41;;;;;;;15.38;8.90;;;;;;;29.41;49.68;94572.47;1653890;84;21197;-55
2022/07/01 08:20:11;;;;;;;11.53;7.92;;;;;;;29.53;49.72;94570.06;1644520;84;21030;-54
2022/07/01 08:22:38;;;;;;;9.48;7.95;;;;;;;29.67;48.20;94579.08;1659152;84;21049;-57
2022/07/01 08:25:07;;;;;;;9.73;8.50;;;;;;;29.76;46.91;94573.53;1654987;84;21435;-52
2022/07/01 08:27:34;;;;;;;10.78;8.43;;;;;;;29.86;46.41;94577.92;1644810;84;21108;-52
2022/07/01 08:30:02;;;;;;;10.82;7.60;;;;;;;29.94;47.22;94570.17;1636842;85;21240;-56
2022/07/01 08:32:30;;;;;;;9.03;7.00;;;;;;;30.06;46.18;94568.42;1657783;84;21163;-55
2022/07/01 08:34:58;;;;;;;8.25;7.03;;;;;;;30.19;45.46;94572.40;1656068;84;21029;-56
2022/07/01 08:37:25;;;;;;;7.70;6.87;;;;;;;30.32;44.86;94569.92;1656898;84;21092;-56
2022/07/01 08:39:54;;;;;;;18.17;8.25;;;;;;;30.46;44.67;94569.02;1652359;84;21446;-54
2022/07/01 08:42:22;;;;;;;13.18;7.33;;;;;;;30.58;43.85;94564.40;1644252;84;21242;-55
2022/07/01 08:44:49;;;;;;;9.10;7.08;;;;;;;30.72;44.21;94561.30;1658103;83;21166;-55
2022/07/01 08:47:16;;;;;;;8.70;6.85;;;;;;;30.85;43.50;94569.50;1655403;84;21001;-57
2022/07/01 08:49:44;;;;;;;7.37;6.72;;;;;;;30.96;42.83;94559.72;1655368;84;21498;-58
2022/07/01 08:52:11;;;;;;;9.70;7.30;;;;;;;31.03;43.14;94552.53;1657912;84;22223;-57
2022/07/01 08:54:39;;;;;;;14.10;6.97;;;;;;;31.12;43.65;94553.32;1655604;84;21120;-59
2022/07/01 08:57:07;;;;;;;11.80;6.80;;;;;;;31.24;42.69;94548.60;1642364;85;22032;-59
2022/07/01 08:59:34;;;;;;;9.53;7.28;;;;;;;31.29;42.06;94550.45;1653965;84;21702;-56
2022/07/01 09:02:04;;;;;;;8.75;6.37;;;;;;;31.33;42.06;94546.52;1656798;84;21118;-56
2022/07/01 09:04:32;;;;;;;7.97;6.03;;;;;;;31.40;41.72;94548.48;1654178;84;21093;-59
2022/07/01 09:07:06;;;;;;;10.03;7.30;;;;;;;31.50;40.60;94536.52;1651390;84;21287;-62
2022/07/01 09:09:37;;;;;;;8.45;6.25;;;;;;;31.63;40.87;94542.50;1656894;84;21017;-56
2022/07/01 09:12:06;;;;;;;7.47;6.78;;;;;;;31.80;39.46;94539.62;1655336;84;21090;-60
2022/07/01 09:14:34;;;;;;;8.35;6.62;;;;;;;31.92;40.07;94544.17;1656345;84;21112;-55
2022/07/01 09:17:05;;;;;;;7.58;6.28;;;;;;;32.04;39.25;94539.44;1657369;84;21038;-58
2022/07/01 09:19:36;;;;;;;12.82;6.80;;;;;;;32.19;39.18;94549.20;1660818;84;21201;-60
2022/07/01 09:22:04;;;;;;;6.80;5.72;;;;;;;32.38;40.11;94540.02;1656463;84;21543;-58
2022/07/01 09:24:37;;;;;;;10.48;6.35;;;;;;;32.58;38.89;94540.83;1656956;84;21038;-57
2022/07/01 09:27:11;;;;;;;10.60;6.72;;;;;;;32.68;37.83;94545.84;1658860;83;22646;-56
2022/07/01 09:29:43;;;;;;;6.90;5.90;;;;;;;32.81;37.83;94536.91;1656531;84;21017;-60
2022/07/01 09:32:12;;;;;;;7.97;5.92;;;;;;;32.92;35.80;94543.42;1656767;84;22032;-60
2022/07/01 09:34:51;;;;;;;8.05;6.22;;;;;;;32.99;35.85;94539.00;1638008;84;21201;-57
2022/07/01 09:37:21;;;;;;;7.42;5.12;;;;;;;33.02;37.07;94542.10;1664764;84;21927;-57
2022/07/01 09:39:53;;;;;;;9.58;6.45;;;;;;;33.03;37.09;94539.32;1630839;85;21020;-56
2022/07/01 09:42:23;;;;;;;7.67;5.87;;;;;;;32.97;36.64;94540.28;1659027;84;21036;-56
2022/07/01 09:45:07;;;;;;;12.03;7.55;;;;;;;32.85;39.18;94538.63;1628345;84;21093;-57
2022/07/01 09:47:38;;;;;;;7.40;6.40;;;;;;;32.80;38.84;94536.83;1652383;84;21019;-55
2022/07/01 09:50:06;;;;;;;6.97;6.37;;;;;;;32.69;38.92;94537.41;1657147;84;21069;-57
2022/07/01 09:52:34;;;;;;;12.03;7.17;;;;;;;32.57;39.35;94535.78;1648684;84;21100;-56
2022/07/01 09:55:02;;;;;;;12.40;7.35;;;;;;;32.43;40.50;94530.42;1658017;85;21059;-57
2022/07/01 09:57:30;;;;;;;11.00;7.65;;;;;;;32.30;40.55;94530.09;1652902;84;21243;-54
2022/07/01 09:59:58;;;;;;;11.43;6.87;;;;;;;32.22;40.71;94526.64;1654891;84;21643;-57
2022/07/01 10:02:28;;;;;;;10.43;7.05;;;;;;;32.25;40.54;94528.30;1635710;84;22168;-55
2022/07/01 10:05:02;;;;;;;8.48;6.08;;;;;;;32.11;40.53;94525.73;1625812;85;21111;-56
2022/07/01 10:07:58;;;;;;;9.58;6.92;;;;;;;32.01;40.90;94530.67;1661373;84;21082;-57
2022/07/01 10:10:52;;;;;;;13.90;6.60;;;;;;;31.95;41.82;94528.75;1661939;84;21713;-57
2022/07/01 10:13:22;;;;;;;10.30;6.45;;;;;;;31.99;41.68;94525.55;1658145;84;21036;-59
2022/07/01 10:15:51;;;;;;;6.67;6.00;;;;;;;32.12;41.29;94523.73;1658308;84;21019;-59
2022/07/01 10:18:25;;;;;;;10.55;6.35;;;;;;;32.28;40.79;94512.86;1657595;84;21074;-62
2022/07/01 10:20:53;;;;;;;12.13;6.15;;;;;;;32.46;40.94;94515.67;1658850;84;21520;-58
2022/07/01 10:23:23;;;;;;;9.50;6.17;;;;;;;32.59;39.66;94523.11;1661342;84;21163;-57
2022/07/01 10:25:54;;;;;;;7.00;6.28;;;;;;;32.72;39.17;94513.41;1657031;84;21005;-59
2022/07/01 10:28:27;;;;;;;7.60;5.83;;;;;;;32.87;39.25;94513.12;1653962;84;21062;-58
2022/07/01 10:31:05;;;;;;;7.45;5.92;;;;;;;33.00;38.08;94508.40;1660636;84;21043;-57
2022/07/01 10:33:52;;;;;;;8.78;5.83;;;;;;;33.14;37.92;94512.30;1658327;83;21024;-59
2022/07/01 10:36:29;;;;;;;8.18;6.10;;;;;;;33.37;37.97;94511.16;1663148;84;21773;-59
2022/07/01 10:39:07;;;;;;;12.65;6.03;;;;;;;33.53;36.82;94510.22;1658154;84;21048;-59
2022/07/01 10:41:43;;;;;;;7.83;5.70;;;;;;;33.64;37.81;94515.31;1656235;84;21052;-58
2022/07/01 10:44:13;;;;;;;10.18;5.95;;;;;;;33.83;37.08;94512.42;1644324;85;21001;-59
2022/07/01 10:46:46;;;;;;;9.38;6.33;;;;;;;34.07;35.55;94514.13;1657717;84;21230;-55
2022/07/01 10:49:14;;;;;;;6.58;5.35;;;;;;;34.31;36.40;94513.00;1658023;83;22037;-55
2022/07/01 10:51:51;;;;;;;8.00;5.15;;;;;;;34.56;35.74;94508.34;1655406;84;21063;-59
2022/07/01 10:54:53;;;;;;;11.60;5.70;;;;;;;34.81;35.81;94497.87;1658492;84;21048;-58
2022/07/01 10:57:26;;;;;;;8.48;5.67;;;;;;;35.08;34.97;94506.16;1650262;84;21056;-57
2022/07/01 11:00:05;;;;;;;7.80;6.15;;;;;;;35.31;34.50;94496.95;1651991;84;21085;-58
2022/07/01 11:02:36;;;;;;;8.30;6.08;;;;;;;35.44;34.28;94505.70;1663525;84;21209;-57
2022/07/01 11:05:09;;;;;;;14.33;6.45;;;;;;;35.59;33.69;94497.36;1656796;84;21100;-57
2022/07/01 11:07:42;;;;;;;9.93;5.53;;;;;;;35.79;33.71;94497.97;1659536;84;21589;-60
2022/07/01 11:10:12;;;;;;;7.80;5.22;;;;;;;36.01;33.20;94487.91;1655239;84;21035;-58
2022/07/01 11:12:40;;;;;;;7.28;6.17;;;;;;;36.24;33.13;94487.96;1655266;84;21040;-60
2022/07/01 11:15:10;;;;;;;7.72;5.72;;;;;;;36.49;32.36;94485.19;1660269;83;22472;-58
2022/07/01 11:17:48;;;;;;;8.90;6.13;;;;;;;36.65;31.46;94477.59;1630741;84;21451;-60
2022/07/01 11:20:15;;;;;;;8.10;6.17;;;;;;;36.85;31.94;94485.95;1656785;84;21124;-61
2022/07/01 11:22:43;;;;;;;11.50;6.28;;;;;;;37.17;31.95;94480.70;1658116;84;21042;-59
2022/07/01 11:25:12;;;;;;;9.23;5.83;;;;;;;37.41;31.06;94479.98;1657359;84;21071;-57
2022/07/01 11:27:40;;;;;;;8.50;5.50;;;;;;;37.45;30.92;94471.61;1655654;84;21008;-61
2022/07/01 11:30:11;;;;;;;6.70;5.17;;;;;;;37.41;31.15;94473.47;1656596;83;21019;-58
2022/07/01 11:32:43;;;;;;;5.80;4.62;;;;;;;37.58;30.95;94471.60;1658898;84;21552;-58
2022/07/01 11:41:12;;;;;;;6.08;5.10;;;;;;;37.65;30.63;94458.39;1652293;84;21596;-55
2022/07/01 11:43:40;;;;;;;9.53;5.53;;;;;;;37.54;30.01;94472.11;1653925;84;21038;-58